sensor_id;sensor_type;location;lat;lon;timestamp;P1;durP1;ratioP1;P2;durP2;ratioP2
20365;SDS011;10341;49.894;8.822;2022-12-10T00:04:43;31.40;;;13.85;;
20365;SDS011;10341;49.894;8.822;2022-12-10T00:10:03;33.88;;;14.20;;
20365;SDS011;10341;49.894;8.822;2022-12-10T00:15:23;29.20;;;13.52;;
20365;SDS011;10341;49.894;8.822;2022-12-10T00:20:42;32.40;;;14.40;;
20365;SDS011;10341;49.894;8.822;2022-12-10T00:31:25;33.38;;;14.05;;
20365;SDS011;10341;49.894;8.822;2022-12-10T00:36:46;34.05;;;15.57;;
20365;SDS011;10341;49.894;8.822;2022-12-10T00:42:09;32.22;;;14.70;;
20365;SDS011;10341;49.894;8.822;2022-12-10T00:47:28;37.53;;;15.48;;
20365;SDS011;10341;49.894;8.822;2022-12-10T00:52:48;31.65;;;14.88;;
20365;SDS011;10341;49.894;8.822;2022-12-10T00:58:08;30.90;;;13.70;;
20365;SDS011;10341;49.894;8.822;2022-12-10T01:08:47;31.85;;;14.02;;
20365;SDS011;10341;49.894;8.822;2022-12-10T01:14:09;30.75;;;13.85;;
20365;SDS011;10341;49.894;8.822;2022-12-10T01:19:31;31.67;;;14.35;;
20365;SDS011;10341;49.894;8.822;2022-12-10T01:24:54;35.92;;;14.82;;
20365;SDS011;10341;49.894;8.822;2022-12-10T01:35:36;32.47;;;13.73;;
20365;SDS011;10341;49.894;8.822;2022-12-10T01:40:57;31.17;;;14.77;;
20365;SDS011;10341;49.894;8.822;2022-12-10T01:46:17;32.88;;;14.07;;
20365;SDS011;10341;49.894;8.822;2022-12-10T01:51:38;31.25;;;13.35;;
20365;SDS011;10341;49.894;8.822;2022-12-10T01:57:00;29.67;;;13.48;;
20365;SDS011;10341;49.894;8.822;2022-12-10T02:13:56;32.30;;;13.63;;
20365;SDS011;10341;49.894;8.822;2022-12-10T02:19:26;33.60;;;13.93;;
20365;SDS011;10341;49.894;8.822;2022-12-10T02:25:00;30.83;;;13.52;;
20365;SDS011;10341;49.894;8.822;2022-12-10T02:30:26;29.77;;;13.23;;
20365;SDS011;10341;49.894;8.822;2022-12-10T02:35:49;32.33;;;13.13;;
20365;SDS011;10341;49.894;8.822;2022-12-10T02:41:24;31.60;;;12.73;;
20365;SDS011;10341;49.894;8.822;2022-12-10T02:46:47;31.80;;;13.52;;
20365;SDS011;10341;49.894;8.822;2022-12-10T02:52:12;28.92;;;12.70;;
20365;SDS011;10341;49.894;8.822;2022-12-10T02:58:00;28.80;;;13.57;;
20365;SDS011;10341;49.894;8.822;2022-12-10T03:03:31;33.25;;;13.73;;
20365;SDS011;10341;49.894;8.822;2022-12-10T03:09:09;27.90;;;13.00;;
20365;SDS011;10341;49.894;8.822;2022-12-10T03:14:52;30.10;;;13.77;;
20365;SDS011;10341;49.894;8.822;2022-12-10T03:20:19;29.05;;;12.93;;
20365;SDS011;10341;49.894;8.822;2022-12-10T03:25:43;30.80;;;12.85;;
20365;SDS011;10341;49.894;8.822;2022-12-10T03:31:03;29.27;;;13.60;;
20365;SDS011;10341;49.894;8.822;2022-12-10T03:36:23;25.45;;;12.35;;
20365;SDS011;10341;49.894;8.822;2022-12-10T03:41:44;28.70;;;12.48;;
20365;SDS011;10341;49.894;8.822;2022-12-10T03:47:04;24.75;;;12.38;;
20365;SDS011;10341;49.894;8.822;2022-12-10T03:52:27;26.77;;;12.30;;
20365;SDS011;10341;49.894;8.822;2022-12-10T03:57:46;27.40;;;12.43;;
20365;SDS011;10341;49.894;8.822;2022-12-10T04:03:06;26.45;;;11.90;;
20365;SDS011;10341;49.894;8.822;2022-12-10T04:13:45;30.27;;;12.60;;
20365;SDS011;10341;49.894;8.822;2022-12-10T04:19:24;29.00;;;12.20;;
20365;SDS011;10341;49.894;8.822;2022-12-10T04:30:22;28.77;;;12.80;;
20365;SDS011;10341;49.894;8.822;2022-12-10T04:35:41;27.38;;;12.73;;
20365;SDS011;10341;49.894;8.822;2022-12-10T04:41:01;29.20;;;13.38;;
20365;SDS011;10341;49.894;8.822;2022-12-10T04:46:20;28.23;;;13.13;;
20365;SDS011;10341;49.894;8.822;2022-12-10T04:51:40;29.75;;;13.43;;
20365;SDS011;10341;49.894;8.822;2022-12-10T04:57:00;31.60;;;13.52;;
20365;SDS011;10341;49.894;8.822;2022-12-10T05:02:20;30.42;;;13.55;;
20365;SDS011;10341;49.894;8.822;2022-12-10T05:12:59;32.38;;;13.60;;
20365;SDS011;10341;49.894;8.822;2022-12-10T05:18:18;29.92;;;13.57;;
20365;SDS011;10341;49.894;8.822;2022-12-10T05:23:39;31.73;;;13.23;;
20365;SDS011;10341;49.894;8.822;2022-12-10T05:29:01;33.65;;;14.65;;
20365;SDS011;10341;49.894;8.822;2022-12-10T05:34:21;27.85;;;13.10;;
20365;SDS011;10341;49.894;8.822;2022-12-10T05:44:59;28.25;;;12.93;;
20365;SDS011;10341;49.894;8.822;2022-12-10T05:50:19;29.40;;;13.20;;
20365;SDS011;10341;49.894;8.822;2022-12-10T05:55:40;34.03;;;14.43;;
20365;SDS011;10341;49.894;8.822;2022-12-10T06:01:00;31.88;;;13.00;;
20365;SDS011;10341;49.894;8.822;2022-12-10T06:06:29;28.87;;;13.20;;
20365;SDS011;10341;49.894;8.822;2022-12-10T06:11:50;28.27;;;12.50;;
20365;SDS011;10341;49.894;8.822;2022-12-10T06:17:09;26.77;;;12.27;;
20365;SDS011;10341;49.894;8.822;2022-12-10T06:22:29;27.95;;;12.80;;
20365;SDS011;10341;49.894;8.822;2022-12-10T06:27:49;32.35;;;13.63;;
20365;SDS011;10341;49.894;8.822;2022-12-10T06:33:08;31.08;;;13.10;;
20365;SDS011;10341;49.894;8.822;2022-12-10T06:38:28;34.97;;;14.77;;
20365;SDS011;10341;49.894;8.822;2022-12-10T06:49:08;33.10;;;14.18;;
20365;SDS011;10341;49.894;8.822;2022-12-10T06:54:27;27.75;;;11.95;;
20365;SDS011;10341;49.894;8.822;2022-12-10T06:59:47;29.05;;;12.88;;
20365;SDS011;10341;49.894;8.822;2022-12-10T07:05:06;31.08;;;13.05;;
20365;SDS011;10341;49.894;8.822;2022-12-10T07:10:26;33.42;;;13.90;;
20365;SDS011;10341;49.894;8.822;2022-12-10T07:21:21;29.92;;;13.23;;
20365;SDS011;10341;49.894;8.822;2022-12-10T07:26:41;30.05;;;12.77;;
20365;SDS011;10341;49.894;8.822;2022-12-10T07:32:02;28.63;;;13.30;;
20365;SDS011;10341;49.894;8.822;2022-12-10T07:37:22;36.97;;;14.55;;
20365;SDS011;10341;49.894;8.822;2022-12-10T07:42:41;31.55;;;13.80;;
20365;SDS011;10341;49.894;8.822;2022-12-10T07:53:20;34.17;;;13.57;;
20365;SDS011;10341;49.894;8.822;2022-12-10T08:04:00;31.48;;;12.85;;
20365;SDS011;10341;49.894;8.822;2022-12-10T08:09:20;29.45;;;13.48;;
20365;SDS011;10341;49.894;8.822;2022-12-10T08:19:58;31.85;;;13.50;;
20365;SDS011;10341;49.894;8.822;2022-12-10T08:25:18;27.10;;;12.05;;
20365;SDS011;10341;49.894;8.822;2022-12-10T08:35:57;26.38;;;11.45;;
20365;SDS011;10341;49.894;8.822;2022-12-10T08:41:22;26.35;;;12.95;;
20365;SDS011;10341;49.894;8.822;2022-12-10T08:46:41;25.77;;;11.90;;
20365;SDS011;10341;49.894;8.822;2022-12-10T08:57:20;26.07;;;11.83;;
20365;SDS011;10341;49.894;8.822;2022-12-10T09:02:40;26.77;;;12.77;;
20365;SDS011;10341;49.894;8.822;2022-12-10T09:07:59;30.02;;;13.73;;
20365;SDS011;10341;49.894;8.822;2022-12-10T09:13:19;25.05;;;12.20;;
20365;SDS011;10341;49.894;8.822;2022-12-10T09:18:39;23.30;;;11.93;;
20365;SDS011;10341;49.894;8.822;2022-12-10T09:23:58;24.58;;;12.18;;
20365;SDS011;10341;49.894;8.822;2022-12-10T09:29:18;21.92;;;11.80;;
20365;SDS011;10341;49.894;8.822;2022-12-10T09:34:37;21.73;;;11.73;;
20365;SDS011;10341;49.894;8.822;2022-12-10T09:39:57;20.83;;;11.70;;
20365;SDS011;10341;49.894;8.822;2022-12-10T09:50:52;17.17;;;9.50;;
20365;SDS011;10341;49.894;8.822;2022-12-10T09:56:23;19.05;;;10.00;;
20365;SDS011;10341;49.894;8.822;2022-12-10T10:02:13;18.42;;;9.50;;
20365;SDS011;10341;49.894;8.822;2022-12-10T10:07:51;17.30;;;9.77;;
20365;SDS011;10341;49.894;8.822;2022-12-10T10:13:20;19.63;;;9.88;;
20365;SDS011;10341;49.894;8.822;2022-12-10T10:18:41;19.13;;;9.82;;
20365;SDS011;10341;49.894;8.822;2022-12-10T10:24:04;19.30;;;10.02;;
20365;SDS011;10341;49.894;8.822;2022-12-10T10:29:25;18.50;;;9.60;;
20365;SDS011;10341;49.894;8.822;2022-12-10T10:34:45;17.58;;;9.05;;
20365;SDS011;10341;49.894;8.822;2022-12-10T10:40:23;17.63;;;8.82;;
20365;SDS011;10341;49.894;8.822;2022-12-10T10:45:59;19.73;;;9.63;;
20365;SDS011;10341;49.894;8.822;2022-12-10T10:51:24;19.83;;;10.88;;
20365;SDS011;10341;49.894;8.822;2022-12-10T10:56:43;20.83;;;10.68;;
20365;SDS011;10341;49.894;8.822;2022-12-10T11:08:01;21.42;;;11.20;;
20365;SDS011;10341;49.894;8.822;2022-12-10T11:13:25;16.92;;;9.45;;
20365;SDS011;10341;49.894;8.822;2022-12-10T11:24:20;18.30;;;10.02;;
20365;SDS011;10341;49.894;8.822;2022-12-10T11:35:53;20.88;;;11.55;;
20365;SDS011;10341;49.894;8.822;2022-12-10T11:41:37;24.55;;;11.40;;
20365;SDS011;10341;49.894;8.822;2022-12-10T11:47:14;20.48;;;10.63;;
20365;SDS011;10341;49.894;8.822;2022-12-10T12:15:38;19.15;;;10.20;;
20365;SDS011;10341;49.894;8.822;2022-12-10T12:21:03;20.10;;;10.07;;
20365;SDS011;10341;49.894;8.822;2022-12-10T12:26:44;23.23;;;12.02;;
20365;SDS011;10341;49.894;8.822;2022-12-10T12:37:49;18.77;;;10.07;;
20365;SDS011;10341;49.894;8.822;2022-12-10T12:43:17;17.38;;;9.63;;
20365;SDS011;10341;49.894;8.822;2022-12-10T12:48:46;18.85;;;10.13;;
20365;SDS011;10341;49.894;8.822;2022-12-10T12:54:20;19.23;;;10.13;;
20365;SDS011;10341;49.894;8.822;2022-12-10T13:05:28;21.20;;;10.68;;
20365;SDS011;10341;49.894;8.822;2022-12-10T13:10:51;17.58;;;9.65;;
20365;SDS011;10341;49.894;8.822;2022-12-10T13:27:33;18.58;;;10.13;;
20365;SDS011;10341;49.894;8.822;2022-12-10T13:33:00;20.80;;;10.57;;
20365;SDS011;10341;49.894;8.822;2022-12-10T13:38:28;21.90;;;11.60;;
20365;SDS011;10341;49.894;8.822;2022-12-10T13:43:58;22.13;;;11.68;;
20365;SDS011;10341;49.894;8.822;2022-12-10T13:49:47;19.75;;;10.60;;
20365;SDS011;10341;49.894;8.822;2022-12-10T14:00:56;21.23;;;10.45;;
20365;SDS011;10341;49.894;8.822;2022-12-10T14:06:18;19.98;;;10.32;;
20365;SDS011;10341;49.894;8.822;2022-12-10T14:11:45;18.00;;;10.02;;
20365;SDS011;10341;49.894;8.822;2022-12-10T14:17:39;19.67;;;10.45;;
20365;SDS011;10341;49.894;8.822;2022-12-10T14:23:05;19.70;;;10.65;;
20365;SDS011;10341;49.894;8.822;2022-12-10T14:28:56;19.77;;;9.85;;
20365;SDS011;10341;49.894;8.822;2022-12-10T14:34:22;18.85;;;9.88;;
20365;SDS011;10341;49.894;8.822;2022-12-10T14:39:44;16.13;;;9.15;;
20365;SDS011;10341;49.894;8.822;2022-12-10T14:50:25;21.15;;;11.02;;
20365;SDS011;10341;49.894;8.822;2022-12-10T14:55:47;18.58;;;9.52;;
20365;SDS011;10341;49.894;8.822;2022-12-10T15:01:11;18.40;;;9.25;;
20365;SDS011;10341;49.894;8.822;2022-12-10T15:06:41;17.77;;;9.10;;
20365;SDS011;10341;49.894;8.822;2022-12-10T15:12:01;20.83;;;10.77;;
20365;SDS011;10341;49.894;8.822;2022-12-10T15:22:54;19.70;;;10.10;;
20365;SDS011;10341;49.894;8.822;2022-12-10T15:39:16;18.67;;;9.77;;
20365;SDS011;10341;49.894;8.822;2022-12-10T15:45:01;18.75;;;9.25;;
20365;SDS011;10341;49.894;8.822;2022-12-10T15:55:54;23.52;;;10.30;;
20365;SDS011;10341;49.894;8.822;2022-12-10T16:01:13;21.55;;;10.98;;
20365;SDS011;10341;49.894;8.822;2022-12-10T16:06:35;18.90;;;9.95;;
20365;SDS011;10341;49.894;8.822;2022-12-10T16:11:54;16.48;;;8.77;;
20365;SDS011;10341;49.894;8.822;2022-12-10T16:17:14;17.67;;;8.63;;
20365;SDS011;10341;49.894;8.822;2022-12-10T16:22:34;16.83;;;8.82;;
20365;SDS011;10341;49.894;8.822;2022-12-10T16:27:54;18.95;;;9.25;;
20365;SDS011;10341;49.894;8.822;2022-12-10T16:33:15;18.85;;;9.30;;
20365;SDS011;10341;49.894;8.822;2022-12-10T16:38:41;17.73;;;9.27;;
20365;SDS011;10341;49.894;8.822;2022-12-10T16:44:00;17.75;;;10.27;;
20365;SDS011;10341;49.894;8.822;2022-12-10T16:49:20;18.92;;;10.07;;
20365;SDS011;10341;49.894;8.822;2022-12-10T16:59:59;17.35;;;8.85;;
20365;SDS011;10341;49.894;8.822;2022-12-10T17:05:33;21.50;;;9.43;;
20365;SDS011;10341;49.894;8.822;2022-12-10T17:10:55;19.38;;;10.27;;
20365;SDS011;10341;49.894;8.822;2022-12-10T17:16:34;18.50;;;9.77;;
20365;SDS011;10341;49.894;8.822;2022-12-10T17:27:14;16.40;;;9.00;;
20365;SDS011;10341;49.894;8.822;2022-12-10T17:32:36;19.02;;;9.38;;
20365;SDS011;10341;49.894;8.822;2022-12-10T17:37:55;15.48;;;8.38;;
20365;SDS011;10341;49.894;8.822;2022-12-10T17:43:15;19.23;;;9.05;;
20365;SDS011;10341;49.894;8.822;2022-12-10T17:48:35;16.65;;;9.00;;
20365;SDS011;10341;49.894;8.822;2022-12-10T17:53:55;16.92;;;8.20;;
20365;SDS011;10341;49.894;8.822;2022-12-10T18:04:33;17.20;;;7.93;;
20365;SDS011;10341;49.894;8.822;2022-12-10T18:09:53;15.98;;;7.90;;
20365;SDS011;10341;49.894;8.822;2022-12-10T18:15:13;16.45;;;8.43;;
20365;SDS011;10341;49.894;8.822;2022-12-10T18:20:33;21.70;;;10.00;;
20365;SDS011;10341;49.894;8.822;2022-12-10T18:25:56;20.73;;;9.40;;
20365;SDS011;10341;49.894;8.822;2022-12-10T18:36:38;18.98;;;9.20;;
20365;SDS011;10341;49.894;8.822;2022-12-10T18:41:59;22.90;;;10.57;;
20365;SDS011;10341;49.894;8.822;2022-12-10T18:52:38;23.02;;;11.07;;
20365;SDS011;10341;49.894;8.822;2022-12-10T18:57:57;21.30;;;10.60;;
20365;SDS011;10341;49.894;8.822;2022-12-10T19:03:17;21.00;;;10.52;;
20365;SDS011;10341;49.894;8.822;2022-12-10T19:13:55;22.13;;;10.25;;
20365;SDS011;10341;49.894;8.822;2022-12-10T19:19:16;21.23;;;10.60;;
20365;SDS011;10341;49.894;8.822;2022-12-10T19:24:36;18.10;;;9.25;;
20365;SDS011;10341;49.894;8.822;2022-12-10T19:29:55;18.65;;;10.43;;
20365;SDS011;10341;49.894;8.822;2022-12-10T19:35:16;26.25;;;11.75;;
20365;SDS011;10341;49.894;8.822;2022-12-10T19:40:37;23.98;;;11.23;;
20365;SDS011;10341;49.894;8.822;2022-12-10T19:45:57;28.38;;;13.30;;
20365;SDS011;10341;49.894;8.822;2022-12-10T19:51:17;28.20;;;13.38;;
20365;SDS011;10341;49.894;8.822;2022-12-10T19:56:37;25.40;;;11.73;;
20365;SDS011;10341;49.894;8.822;2022-12-10T20:01:57;38.72;;;16.33;;
20365;SDS011;10341;49.894;8.822;2022-12-10T20:07:16;33.83;;;13.90;;
20365;SDS011;10341;49.894;8.822;2022-12-10T20:12:36;23.55;;;11.75;;
20365;SDS011;10341;49.894;8.822;2022-12-10T20:17:56;27.85;;;11.85;;
20365;SDS011;10341;49.894;8.822;2022-12-10T20:23:16;27.38;;;13.18;;
20365;SDS011;10341;49.894;8.822;2022-12-10T20:28:35;27.15;;;11.05;;
20365;SDS011;10341;49.894;8.822;2022-12-10T20:39:16;26.30;;;11.77;;
20365;SDS011;10341;49.894;8.822;2022-12-10T20:44:36;29.90;;;13.57;;
20365;SDS011;10341;49.894;8.822;2022-12-10T20:49:55;25.95;;;12.85;;
20365;SDS011;10341;49.894;8.822;2022-12-10T20:55:15;31.30;;;14.25;;
20365;SDS011;10341;49.894;8.822;2022-12-10T21:00:35;28.52;;;13.63;;
20365;SDS011;10341;49.894;8.822;2022-12-10T21:05:55;27.83;;;12.75;;
20365;SDS011;10341;49.894;8.822;2022-12-10T21:11:14;24.95;;;12.60;;
20365;SDS011;10341;49.894;8.822;2022-12-10T21:16:34;26.88;;;13.00;;
20365;SDS011;10341;49.894;8.822;2022-12-10T21:21:54;25.40;;;12.45;;
20365;SDS011;10341;49.894;8.822;2022-12-10T21:27:13;28.27;;;12.82;;
20365;SDS011;10341;49.894;8.822;2022-12-10T21:32:33;31.20;;;14.25;;
20365;SDS011;10341;49.894;8.822;2022-12-10T21:43:12;29.63;;;13.97;;
20365;SDS011;10341;49.894;8.822;2022-12-10T21:48:41;32.75;;;14.15;;
20365;SDS011;10341;49.894;8.822;2022-12-10T21:54:01;33.10;;;13.57;;
20365;SDS011;10341;49.894;8.822;2022-12-10T21:59:21;28.33;;;13.23;;
20365;SDS011;10341;49.894;8.822;2022-12-10T22:04:40;33.25;;;14.43;;
20365;SDS011;10341;49.894;8.822;2022-12-10T22:10:00;36.58;;;16.50;;
20365;SDS011;10341;49.894;8.822;2022-12-10T22:15:20;33.33;;;15.05;;
20365;SDS011;10341;49.894;8.822;2022-12-10T22:20:40;38.30;;;15.65;;
20365;SDS011;10341;49.894;8.822;2022-12-10T22:26:05;31.60;;;14.52;;
20365;SDS011;10341;49.894;8.822;2022-12-10T22:31:26;33.65;;;14.93;;
20365;SDS011;10341;49.894;8.822;2022-12-10T22:36:46;30.02;;;13.75;;
20365;SDS011;10341;49.894;8.822;2022-12-10T22:42:07;31.30;;;15.45;;
20365;SDS011;10341;49.894;8.822;2022-12-10T22:47:26;34.72;;;15.73;;
20365;SDS011;10341;49.894;8.822;2022-12-10T22:52:46;30.00;;;13.35;;
20365;SDS011;10341;49.894;8.822;2022-12-10T22:58:06;33.42;;;14.90;;
20365;SDS011;10341;49.894;8.822;2022-12-10T23:03:26;31.55;;;13.52;;
20365;SDS011;10341;49.894;8.822;2022-12-10T23:08:46;31.17;;;13.77;;
20365;SDS011;10341;49.894;8.822;2022-12-10T23:14:06;35.97;;;14.82;;
20365;SDS011;10341;49.894;8.822;2022-12-10T23:19:26;33.90;;;14.45;;
20365;SDS011;10341;49.894;8.822;2022-12-10T23:24:47;37.55;;;15.55;;
20365;SDS011;10341;49.894;8.822;2022-12-10T23:30:07;31.85;;;14.80;;
20365;SDS011;10341;49.894;8.822;2022-12-10T23:35:27;31.52;;;14.23;;
20365;SDS011;10341;49.894;8.822;2022-12-10T23:40:47;35.25;;;14.80;;
20365;SDS011;10341;49.894;8.822;2022-12-10T23:46:07;33.88;;;14.82;;
20365;SDS011;10341;49.894;8.822;2022-12-10T23:51:26;34.65;;;14.50;;
20365;SDS011;10341;49.894;8.822;2022-12-10T23:56:46;32.20;;;14.10;;
